This is the latest recevied weather packets stored in our database for station/object LRCV. If no packets are shown the sender has not sent any weather packets the latest 10 day(s).
| Time | Temp. | Humidity | Pressure | Rain* | Wind** | Luminosity | Snow |
|---|---|---|---|---|---|---|---|
| 1777955621 | 11.11° C | 82% | 1016 hPa | - | - | - | - |
| 1777954722 | 10° C | 88% | 1016 hPa | - | - | - | - |
| 1777953821 | 10° C | 88% | 1016 hPa | - | - | - | - |
| 1777952921 | 7.22° C | 93% | 1016 hPa | - | - | - | - |
| 1777952021 | 7.22° C | 93% | 1016 hPa | - | - | - | - |
| 1777951121 | 7.22° C | 93% | 1015 hPa | - | - | - | - |
| 1777950221 | 7.22° C | 93% | 1015 hPa | - | - | - | - |
| 1777949322 | 7.78° C | 93% | 1015 hPa | - | - | - | - |
| 1777948421 | 7.78° C | 93% | 1015 hPa | - | - | - | - |
| 1777947521 | 8.89° C | 87% | 1015 hPa | - | - | - | - |
| 1777946621 | 8.89° C | 87% | 1015 hPa | - | - | - | - |
| 1777945721 | 8.89° C | 82% | 1015 hPa | - | - | - | - |
| 1777944822 | 8.89° C | 82% | 1015 hPa | - | - | - | - |
| 1777943921 | 10° C | 82% | 1015 hPa | - | - | - | - |
| 1777943022 | 10° C | 82% | 1015 hPa | - | - | - | - |
| 1777942121 | 8.89° C | 82% | 1015 hPa | - | - | - | - |
| 1777941221 | 8.89° C | 82% | 1015 hPa | - | - | - | - |
| 1777940322 | 12.22° C | 72% | 1015 hPa | - | - | - | - |
| 1777939422 | 12.22° C | 72% | 1015 hPa | - | - | - | - |
| 1777938522 | 12.22° C | 72% | 1015 hPa | - | - | - | - |
| 1777937621 | 12.22° C | 72% | 1015 hPa | - | - | - | - |
| 1777936722 | 12.22° C | 72% | 1015 hPa | - | - | - | - |
| 1777935822 | 12.22° C | 72% | 1015 hPa | - | - | - | - |
| 1777934921 | 12.78° C | 67% | 1015 hPa | - | - | - | - |
| 1777934022 | 12.78° C | 67% | 1015 hPa | - | - | - | - |
* Rain since midnight (hover to see other rain measurements)
** Current wind speed in m/s (hover to see current wind gust speed)